Time;durP1;ratioP1;P1;durP2;ratioP2;P2;SDS_P1;SDS_P2;PMS_P1;PMS_P2;Temp;Humidity;BMP_temperature;BMP_pressure;BME280_temperature;BME280_humidity;BME280_pressure;Samples;Min_cycle;Max_cycle;Signal;HPM_P1;HPM_P2
2023/03/30 00:00:57;;;;;;;12.57;3.13;;;14.30;1.00;;;;;;5095045;28;20540;-45
2023/03/30 00:03:23;;;;;;;7.30;2.80;;;14.30;1.00;;;;;;5095138;28;20426;-44
2023/03/30 00:05:55;;;;;;;8.70;3.60;;;14.20;1.00;;;;;;5096152;28;20263;-44
2023/03/30 00:08:27;;;;;;;10.67;3.43;;;14.10;1.00;;;;;;5095921;28;20467;-45
2023/03/30 00:10:59;;;;;;;7.30;3.40;;;14.10;1.00;;;;;;5096180;28;20483;-44
2023/03/30 00:13:25;;;;;;;11.73;3.50;;;14.10;1.00;;;;;;5095580;28;20413;-43
2023/03/30 00:15:51;;;;;;;8.10;3.20;;;14.10;1.00;;;;;;5095426;28;20425;-43
2023/03/30 00:18:16;;;;;;;9.50;2.83;;;14.10;1.00;;;;;;5095748;28;20430;-45
2023/03/30 00:20:43;;;;;;;7.43;3.00;;;14.00;1.00;;;;;;5094017;28;20176;-45
2023/03/30 00:23:09;;;;;;;9.00;2.87;;;14.00;1.00;;;;;;5095616;28;20187;-45
2023/03/30 00:25:35;;;;;;;7.27;2.80;;;14.00;1.00;;;;;;5093637;28;20430;-46
2023/03/30 00:28:00;;;;;;;16.13;3.77;;;13.90;1.00;;;;;;5093492;28;20246;-45
2023/03/30 00:30:26;;;;;;;8.57;2.90;;;13.90;1.00;;;;;;5093489;28;20235;-44
2023/03/30 00:32:52;;;;;;;9.30;3.37;;;13.90;1.00;;;;;;5092835;28;20172;-46
2023/03/30 00:35:18;;;;;;;7.30;2.50;;;13.90;11.60;;;;;;5093571;28;20203;-45
2023/03/30 00:37:44;;;;;;;9.97;3.20;;;13.90;20.90;;;;;;5094644;28;20541;-45
2023/03/30 00:40:15;;;;;;;8.63;3.23;;;13.80;39.90;;;;;;5094635;28;20415;-45
2023/03/30 00:42:41;;;;;;;11.80;3.73;;;13.80;61.70;;;;;;5094451;28;20176;-47
2023/03/30 00:45:25;;;;;;;7.93;2.70;;;13.90;70.30;;;;;;5094985;28;20905;-45
2023/03/30 00:47:55;;;;;;;9.83;2.60;;;13.90;94.00;;;;;;5095087;28;20288;-45
2023/03/30 00:50:25;;;;;;;6.13;2.83;;;14.00;85.70;;;;;;5094407;28;20411;-46
2023/03/30 00:52:52;;;;;;;6.10;2.83;;;14.00;98.20;;;;;;5094091;28;20430;-46
2023/03/30 00:55:20;;;;;;;9.13;3.00;;;14.10;99.90;;;;;;5094455;28;20914;-46
2023/03/30 00:57:46;;;;;;;8.80;3.53;;;14.00;99.90;;;;;;5093970;28;20430;-45
2023/03/30 01:00:13;;;;;;;8.13;2.47;;;14.00;99.90;;;;;;5094341;28;20421;-45
2023/03/30 01:02:47;;;;;;;9.10;3.50;;;14.00;99.90;;;;;;5095550;28;20700;-44
2023/03/30 01:06:08;;;;;;;9.83;3.43;;;14.00;99.90;;;;;;5094453;28;20763;-46
2023/03/30 01:08:36;;;;;;;4.53;2.27;;;14.00;99.90;;;;;;5094833;28;20736;-44
2023/03/30 01:11:03;;;;;;;9.03;3.10;;;14.00;99.90;;;;;;5094349;28;20464;-46
2023/03/30 01:13:31;;;;;;;8.33;3.20;;;14.00;99.90;;;;;;5095591;28;20436;-46
2023/03/30 01:16:21;;;;;;;12.30;3.30;;;14.00;99.90;;;;;;5094329;28;20417;-44
2023/03/30 01:18:54;;;;;;;15.80;3.03;;;14.10;99.90;;;;;;5095540;28;20421;-44
2023/03/30 01:22:03;;;;;;;8.73;3.60;;;14.00;99.90;;;;;;5095103;28;20410;-44
2023/03/30 01:24:47;;;;;;;9.43;3.80;;;14.10;99.90;;;;;;5095494;28;20406;-45
2023/03/30 01:27:44;;;;;;;9.23;2.93;;;13.90;1.00;;;;;;5095099;28;20478;-43
2023/03/30 01:30:42;;;;;;;14.87;3.20;;;13.90;99.90;;;;;;5094811;28;20527;-46
2023/03/30 01:33:29;;;;;;;11.33;2.90;;;13.80;99.90;;;;;;5088277;28;20701;-45
2023/03/30 01:36:27;;;;;;;11.00;4.00;;;13.60;1.00;;;;;;5093947;28;20764;-45
2023/03/30 01:39:21;;;;;;;8.13;3.17;;;13.50;1.00;;;;;;5081856;28;20427;-45
2023/03/30 01:42:11;;;;;;;8.60;3.50;;;13.50;1.00;;;;;;5098326;28;20410;-42
2023/03/30 01:45:12;;;;;;;8.50;3.20;;;13.40;1.00;;;;;;5098243;28;20418;-43
2023/03/30 01:47:53;;;;;;;10.90;3.70;;;13.20;1.00;;;;;;5044942;28;20484;-45
2023/03/30 01:50:24;;;;;;;12.57;4.13;;;13.00;1.00;;;;;;5099402;28;20434;-43
2023/03/30 01:52:59;;;;;;;12.17;3.80;;;12.90;26.00;;;;;;5097503;28;20643;-43
2023/03/30 01:55:45;;;;;;;13.07;3.73;;;12.80;1.00;;;;;;5098895;28;20505;-44
2023/03/30 01:58:34;;;;;;;21.50;5.03;;;12.70;1.00;;;;;;5098516;28;20418;-44
2023/03/30 02:01:00;;;;;;;8.63;4.37;;;12.70;1.00;;;;;;5098472;28;20429;-43
2023/03/30 02:03:36;;;;;;;9.87;3.60;;;12.60;1.00;;;;;;5097089;28;20457;-43
2023/03/30 02:06:06;;;;;;;10.27;2.67;;;12.50;7.60;;;;;;5097547;28;20501;-42
2023/03/30 02:08:33;;;;;;;10.50;4.07;;;12.60;1.00;;;;;;5097465;28;20779;-43
2023/03/30 02:10:59;;;;;;;10.13;5.20;;;12.60;1.00;;;;;;5097679;28;20492;-44
2023/03/30 02:13:26;;;;;;;10.00;3.37;;;12.60;1.00;;;;;;5096988;28;20422;-44
2023/03/30 02:15:58;;;;;;;8.10;3.83;;;12.60;1.00;;;;;;5096229;28;20283;-46
2023/03/30 02:18:24;;;;;;;9.23;3.90;;;12.60;1.00;;;;;;5097078;28;20467;-46
2023/03/30 02:20:49;;;;;;;9.50;3.30;;;12.60;99.90;;;;;;5098423;28;20805;-44
2023/03/30 02:23:21;;;;;;;9.10;3.80;;;12.60;99.90;;;;;;5096293;28;20241;-44
2023/03/30 02:25:47;;;;;;;10.13;3.90;;;12.60;99.90;;;;;;5097003;28;20219;-42
2023/03/30 02:28:12;;;;;;;9.70;4.30;;;12.60;99.90;;;;;;5095292;28;20478;-46
2023/03/30 02:30:40;;;;;;;10.40;3.53;;;12.60;99.90;;;;;;5097251;28;20234;-43
2023/03/30 02:33:07;;;;;;;12.67;4.00;;;12.60;99.90;;;;;;5097342;28;20183;-44
2023/03/30 02:35:42;;;;;;;8.90;3.40;;;12.70;99.90;;;;;;5097035;28;20422;-43
2023/03/30 02:38:42;;;;;;;14.57;3.47;;;12.60;54.70;;;;;;5097368;28;20862;-44
2023/03/30 02:41:41;;;;;;;11.90;4.93;;;12.70;1.00;;;;;;5096802;28;20692;-54
2023/03/30 02:44:36;;;;;;;12.90;3.30;;;12.70;1.00;;;;;;5096319;28;20435;-43
2023/03/30 02:47:11;;;;;;;13.20;3.67;;;12.70;29.90;;;;;;5095839;28;20531;-43
2023/03/30 02:49:50;;;;;;;9.43;4.17;;;12.70;99.90;;;;;;5094839;28;20476;-44
2023/03/30 02:52:35;;;;;;;11.43;4.50;;;12.80;99.90;;;;;;5097438;28;20889;-44
2023/03/30 02:55:19;;;;;;;12.97;3.27;;;12.70;64.90;;;;;;5097899;28;20493;-44
2023/03/30 02:58:01;;;;;;;11.67;3.37;;;12.60;99.90;;;;;;5096951;28;20531;-42
2023/03/30 03:00:31;;;;;;;15.00;3.70;;;12.60;1.00;;;;;;5097734;28;20422;-43
2023/03/30 03:03:02;;;;;;;13.73;3.53;;;12.50;1.00;;;;;;5097607;28;20482;-43
2023/03/30 03:05:27;;;;;;;7.87;2.90;;;12.40;99.90;;;;;;5096066;28;20483;-43
2023/03/30 03:07:53;;;;;;;9.77;3.87;;;12.40;99.90;;;;;;5095255;28;20950;-43
2023/03/30 03:10:19;;;;;;;11.70;3.60;;;12.30;99.90;;;;;;5096573;28;20443;-44
2023/03/30 03:12:45;;;;;;;11.50;3.80;;;12.20;99.90;;;;;;5096087;28;20176;-43
2023/03/30 03:15:11;;;;;;;11.10;4.30;;;12.20;1.00;;;;;;5096388;28;20243;-42
2023/03/30 03:17:37;;;;;;;8.13;3.60;;;12.20;1.00;;;;;;5096577;28;20901;-45
2023/03/30 03:20:04;;;;;;;11.67;4.80;;;12.10;1.00;;;;;;5097183;28;20268;-43
2023/03/30 03:22:30;;;;;;;7.30;3.50;;;12.10;1.00;;;;;;5097037;28;20434;-43
2023/03/30 03:24:56;;;;;;;8.57;3.93;;;12.20;11.50;;;;;;5097352;28;20449;-44
2023/03/30 03:27:22;;;;;;;12.57;3.83;;;12.10;3.70;;;;;;5097003;28;20474;-44
2023/03/30 03:29:48;;;;;;;7.77;3.57;;;12.10;37.50;;;;;;5096896;28;20840;-44
2023/03/30 03:32:14;;;;;;;9.20;4.30;;;12.00;93.00;;;;;;5096781;28;20428;-45
2023/03/30 03:34:43;;;;;;;8.23;3.50;;;12.00;99.90;;;;;;5096436;28;20441;-45
2023/03/30 03:37:09;;;;;;;11.10;3.57;;;12.00;99.90;;;;;;5096696;28;20480;-43
2023/03/30 03:39:36;;;;;;;15.93;6.43;;;11.90;99.90;;;;;;5096460;28;20758;-43
2023/03/30 03:42:05;;;;;;;13.50;4.10;;;11.90;99.90;;;;;;5094550;28;20499;-43
2023/03/30 03:44:31;;;;;;;14.53;5.83;;;12.00;99.90;;;;;;5095196;28;20734;-43
2023/03/30 03:46:57;;;;;;;8.43;4.63;;;12.00;99.90;;;;;;5094203;28;20783;-43
2023/03/30 03:49:23;;;;;;;12.80;5.50;;;12.00;99.90;;;;;;5093852;28;20505;-45
2023/03/30 03:51:48;;;;;;;11.83;4.57;;;11.90;99.90;;;;;;5093796;28;20451;-44
2023/03/30 03:54:15;;;;;;;6.87;3.73;;;12.00;99.90;;;;;;5094555;28;20176;-45
2023/03/30 03:56:40;;;;;;;13.40;4.20;;;11.90;99.90;;;;;;5094916;28;20187;-42
2023/03/30 03:59:06;;;;;;;10.00;4.13;;;12.00;99.90;;;;;;5094586;28;20427;-42
2023/03/30 04:01:32;;;;;;;9.13;5.30;;;12.00;99.90;;;;;;5095530;28;20260;-44
2023/03/30 04:03:57;;;;;;;14.50;5.33;;;11.90;99.90;;;;;;5094404;28;20188;-43
2023/03/30 04:06:23;;;;;;;11.07;3.90;;;11.90;99.90;;;;;;5095716;28;20183;-43
2023/03/30 04:08:49;;;;;;;12.20;5.60;;;11.90;99.90;;;;;;5095862;28;20208;-45
2023/03/30 04:11:15;;;;;;;7.77;4.17;;;11.90;99.90;;;;;;5095447;28;20578;-44
2023/03/30 04:13:40;;;;;;;14.03;4.80;;;12.00;99.90;;;;;;5094439;28;20180;-42
2023/03/30 04:16:06;;;;;;;9.10;3.70;;;11.90;99.90;;;;;;5095506;28;20160;-44
2023/03/30 04:18:33;;;;;;;7.60;3.73;;;11.90;99.90;;;;;;5095703;28;20471;-43
2023/03/30 04:21:01;;;;;;;10.70;3.87;;;11.90;99.90;;;;;;5095410;28;20426;-42
2023/03/30 04:23:32;;;;;;;7.70;4.13;;;11.90;99.90;;;;;;5091854;28;20488;-43
2023/03/30 04:26:01;;;;;;;8.53;4.30;;;11.90;99.90;;;;;;5093593;28;20422;-43
2023/03/30 04:28:31;;;;;;;13.07;4.50;;;11.90;99.90;;;;;;5095010;28;20496;-45
2023/03/30 04:31:11;;;;;;;13.17;4.00;;;11.90;99.90;;;;;;5091912;28;20409;-48
2023/03/30 04:33:43;;;;;;;10.97;3.37;;;11.90;99.90;;;;;;5091629;28;20524;-45
2023/03/30 04:36:16;;;;;;;15.30;4.87;;;11.90;99.90;;;;;;5090576;28;20406;-43
2023/03/30 04:38:57;;;;;;;13.20;3.97;;;11.90;99.90;;;;;;5091830;28;20469;-42
2023/03/30 04:41:28;;;;;;;12.87;4.27;;;11.90;99.90;;;;;;5091201;28;20481;-44
2023/03/30 04:43:54;;;;;;;12.43;4.53;;;12.00;99.90;;;;;;5091401;28;20702;-43
2023/03/30 04:46:20;;;;;;;10.57;4.97;;;12.00;99.90;;;;;;5093142;28;20421;-42
2023/03/30 04:48:46;;;;;;;20.10;4.80;;;12.00;99.90;;;;;;5092308;28;20473;-43
2023/03/30 04:51:11;;;;;;;8.97;4.60;;;11.90;99.90;;;;;;5093292;28;20242;-42
2023/03/30 04:53:37;;;;;;;9.50;4.07;;;11.90;99.90;;;;;;5093649;28;20211;-42
2023/03/30 04:56:02;;;;;;;10.70;4.40;;;11.90;99.90;;;;;;5092160;28;20177;-43
2023/03/30 04:58:28;;;;;;;7.17;3.63;;;12.00;99.90;;;;;;5094330;28;20192;-43
2023/03/30 05:00:54;;;;;;;9.80;3.40;;;12.00;99.90;;;;;;5091563;28;20188;-42
2023/03/30 05:03:20;;;;;;;11.87;3.67;;;12.00;99.90;;;;;;5089227;28;20184;-44
2023/03/30 05:05:46;;;;;;;10.87;4.70;;;12.00;99.90;;;;;;5090284;28;20433;-43
2023/03/30 05:08:12;;;;;;;10.30;4.30;;;12.00;99.90;;;;;;5091869;28;20300;-45
2023/03/30 05:10:37;;;;;;;11.70;4.97;;;12.00;99.90;;;;;;5089367;28;20177;-43
2023/03/30 05:13:03;;;;;;;14.10;5.27;;;12.00;99.90;;;;;;5089366;28;20422;-44
2023/03/30 05:15:29;;;;;;;9.13;4.27;;;12.00;99.90;;;;;;5091768;28;20173;-43
2023/03/30 05:17:55;;;;;;;9.13;4.87;;;12.00;99.90;;;;;;5089889;28;20184;-43
2023/03/30 05:20:21;;;;;;;10.97;4.67;;;12.00;99.90;;;;;;5089256;28;20180;-46
2023/03/30 05:22:46;;;;;;;8.23;4.70;;;12.00;99.90;;;;;;5089887;28;20665;-46
2023/03/30 05:25:12;;;;;;;7.67;4.43;;;12.00;99.90;;;;;;5094431;28;20450;-44
2023/03/30 05:27:37;;;;;;;10.60;4.37;;;12.00;99.90;;;;;;5092936;28;20323;-44
2023/03/30 05:30:03;;;;;;;13.20;5.20;;;12.00;99.90;;;;;;5091260;28;20436;-43
2023/03/30 05:32:29;;;;;;;11.03;3.60;;;12.00;99.90;;;;;;5090246;28;20176;-44
2023/03/30 05:34:55;;;;;;;8.97;4.00;;;12.00;99.90;;;;;;5090155;28;20986;-45
2023/03/30 05:37:21;;;;;;;6.67;3.87;;;12.00;99.90;;;;;;5093268;28;20762;-43
2023/03/30 05:39:47;;;;;;;12.30;4.37;;;12.00;99.90;;;;;;5095084;28;20422;-43
2023/03/30 05:42:12;;;;;;;8.83;4.17;;;12.00;99.90;;;;;;5093492;28;20177;-43
2023/03/30 05:44:38;;;;;;;11.90;4.27;;;12.00;99.90;;;;;;5091645;28;20475;-46
2023/03/30 05:47:04;;;;;;;12.07;3.90;;;12.00;99.90;;;;;;5093812;28;20212;-45
2023/03/30 05:49:30;;;;;;;11.63;4.00;;;12.00;99.90;;;;;;5093960;28;20427;-45
2023/03/30 05:51:55;;;;;;;12.47;5.00;;;12.00;99.90;;;;;;5092318;28;20245;-44
2023/03/30 05:54:21;;;;;;;23.07;12.30;;;12.00;99.90;;;;;;5089996;28;20762;-45
2023/03/30 05:56:47;;;;;;;27.93;17.63;;;12.00;99.90;;;;;;5096525;28;20172;-42
2023/03/30 05:59:13;;;;;;;12.13;5.60;;;12.00;99.90;;;;;;5095797;28;20269;-46
2023/03/30 06:01:39;;;;;;;12.03;5.17;;;12.10;99.90;;;;;;5092415;28;20279;-50
2023/03/30 06:04:06;;;;;;;10.93;4.67;;;12.10;99.90;;;;;;5093415;28;20315;-45
2023/03/30 06:06:32;;;;;;;9.57;4.63;;;12.10;99.90;;;;;;5089890;28;20598;-43
2023/03/30 06:08:59;;;;;;;12.13;3.93;;;12.10;99.90;;;;;;5092724;28;20477;-44
2023/03/30 06:11:25;;;;;;;10.33;4.13;;;12.10;99.90;;;;;;5092166;28;20176;-44
2023/03/30 06:13:50;;;;;;;15.23;4.97;;;12.20;99.90;;;;;;5089778;28;20847;-43
2023/03/30 06:16:16;;;;;;;16.00;5.93;;;12.20;99.90;;;;;;5090248;28;20234;-43
2023/03/30 06:18:41;;;;;;;12.43;4.17;;;12.20;99.90;;;;;;5091838;28;20176;-45
2023/03/30 06:21:07;;;;;;;12.83;4.63;;;12.20;99.90;;;;;;5093028;28;20214;-47
2023/03/30 06:23:34;;;;;;;10.20;4.93;;;12.20;99.90;;;;;;5091307;28;20185;-43
2023/03/30 06:26:00;;;;;;;13.13;4.70;;;12.30;91.90;;;;;;5091958;28;20758;-45
2023/03/30 06:28:26;;;;;;;11.73;4.60;;;12.20;42.90;;;;;;5091534;28;20506;-44
2023/03/30 06:30:52;;;;;;;15.33;5.20;;;12.30;1.00;;;;;;5093308;28;20487;-44
2023/03/30 06:33:18;;;;;;;8.43;4.53;;;12.30;1.00;;;;;;5095233;28;20196;-45
2023/03/30 06:35:48;;;;;;;12.87;4.50;;;12.30;1.00;;;;;;5093291;28;20411;-45
2023/03/30 06:38:15;;;;;;;10.37;3.60;;;12.40;1.00;;;;;;5092290;28;20489;-44
2023/03/30 06:40:41;;;;;;;11.33;3.90;;;12.50;99.90;;;;;;5092451;28;20457;-45
2023/03/30 06:43:07;;;;;;;13.03;4.47;;;12.50;99.90;;;;;;5094161;28;20446;-43
2023/03/30 06:45:33;;;;;;;11.10;4.30;;;12.60;99.90;;;;;;5094004;28;20406;-46
2023/03/30 06:47:58;;;;;;;10.77;4.30;;;12.70;99.90;;;;;;5092056;28;20470;-44
2023/03/30 06:50:24;;;;;;;18.77;4.80;;;12.80;1.00;;;;;;5093813;28;20169;-45
2023/03/30 06:52:50;;;;;;;9.87;4.53;;;12.80;1.00;;;;;;5090669;28;20560;-43
2023/03/30 06:55:16;;;;;;;11.90;4.53;;;12.90;1.00;;;;;;5091297;28;20484;-44
2023/03/30 06:57:42;;;;;;;10.13;3.87;;;13.10;1.00;;;;;;5091421;28;20523;-44
2023/03/30 07:00:12;;;;;;;15.80;4.77;;;13.20;1.00;;;;;;5092830;28;20337;-44
2023/03/30 07:02:38;;;;;;;19.60;6.10;;;13.30;99.90;;;;;;5095061;28;20264;-46
2023/03/30 07:05:05;;;;;;;13.50;5.13;;;13.20;1.00;;;;;;5094485;28;20800;-44
2023/03/30 07:07:31;;;;;;;9.93;4.13;;;13.20;1.00;;;;;;5095067;28;20919;-44
2023/03/30 07:09:58;;;;;;;11.03;5.57;;;13.10;1.00;;;;;;5096001;28;20425;-44
2023/03/30 07:12:25;;;;;;;12.60;5.00;;;12.90;99.90;;;;;;5096876;28;20233;-45
2023/03/30 07:14:51;;;;;;;8.07;4.50;;;12.80;99.90;;;;;;5096907;28;20426;-46
2023/03/30 07:17:16;;;;;;;17.20;6.17;;;12.70;1.00;;;;;;5093921;28;20422;-44
2023/03/30 07:19:42;;;;;;;13.30;5.10;;;12.60;1.00;;;;;;5092291;28;20177;-43
2023/03/30 07:22:08;;;;;;;13.50;5.63;;;12.60;46.00;;;;;;5091417;28;20322;-44
2023/03/30 07:24:34;;;;;;;13.97;4.87;;;12.60;99.90;;;;;;5092056;28;20430;-43
2023/03/30 07:26:59;;;;;;;13.30;5.13;;;12.50;99.90;;;;;;5091019;28;20557;-44
2023/03/30 07:29:27;;;;;;;13.53;5.30;;;12.50;99.90;;;;;;5091936;28;20181;-44
2023/03/30 07:31:55;;;;;;;20.23;5.70;;;12.30;99.90;;;;;;5091175;28;20191;-45
2023/03/30 07:34:20;;;;;;;12.23;4.97;;;12.40;99.90;;;;;;5089977;28;20410;-42
2023/03/30 07:36:46;;;;;;;14.20;5.13;;;12.40;99.90;;;;;;5087268;28;20441;-43
2023/03/30 07:39:12;;;;;;;8.90;4.80;;;12.40;99.90;;;;;;5086910;28;20183;-45
2023/03/30 07:41:37;;;;;;;10.57;4.70;;;12.40;99.90;;;;;;5094350;28;20296;-42
2023/03/30 07:44:03;;;;;;;10.87;4.47;;;12.40;99.90;;;;;;5094744;28;20199;-42
2023/03/30 07:46:29;;;;;;;15.50;5.60;;;12.40;99.90;;;;;;5092834;28;20169;-46
2023/03/30 07:48:54;;;;;;;13.60;5.03;;;12.40;99.90;;;;;;5092096;28;20289;-45
2023/03/30 07:51:20;;;;;;;12.77;4.83;;;12.40;99.90;;;;;;5091763;28;20168;-44
2023/03/30 07:53:47;;;;;;;16.63;5.23;;;12.40;99.90;;;;;;5092720;28;20176;-44
2023/03/30 07:56:12;;;;;;;16.07;7.47;;;12.50;99.90;;;;;;5091121;28;20259;-43
2023/03/30 07:58:38;;;;;;;10.83;5.87;;;12.60;1.00;;;;;;5090722;28;20509;-43
2023/03/30 08:01:04;;;;;;;16.90;6.60;;;12.60;1.00;;;;;;5091083;28;20168;-44
2023/03/30 08:03:33;;;;;;;15.60;6.93;;;12.60;1.00;;;;;;5091334;28;20426;-43
2023/03/30 08:06:03;;;;;;;17.03;6.70;;;12.70;1.00;;;;;;5092683;28;20482;-43
2023/03/30 08:08:30;;;;;;;13.53;6.47;;;12.80;99.90;;;;;;5092136;28;20465;-46
2023/03/30 08:10:55;;;;;;;12.77;7.43;;;12.80;99.90;;;;;;5092753;28;20410;-44
2023/03/30 08:13:21;;;;;;;12.47;7.23;;;12.70;99.90;;;;;;5094096;28;20533;-44
2023/03/30 08:15:47;;;;;;;12.60;6.33;;;12.60;1.00;;;;;;5095833;28;20173;-46
2023/03/30 08:18:13;;;;;;;11.83;6.70;;;12.60;1.00;;;;;;5095689;28;20180;-44
2023/03/30 08:20:40;;;;;;;14.20;7.47;;;12.60;1.00;;;;;;5095416;28;20447;-45
2023/03/30 08:23:08;;;;;;;12.93;6.47;;;12.60;1.00;;;;;;5093612;28;20461;-46
2023/03/30 08:25:34;;;;;;;8.93;4.87;;;12.50;1.00;;;;;;5092568;28;20751;-44
2023/03/30 08:27:59;;;;;;;10.63;6.20;;;12.50;1.00;;;;;;5092820;28;20478;-45
2023/03/30 08:30:26;;;;;;;16.20;5.57;;;12.60;1.00;;;;;;5092909;28;20743;-49
2023/03/30 08:32:52;;;;;;;9.77;6.93;;;12.60;1.00;;;;;;5093590;28;20209;-45
2023/03/30 08:35:17;;;;;;;11.67;4.70;;;12.60;1.00;;;;;;5093338;28;20410;-44
2023/03/30 08:37:43;;;;;;;13.20;4.60;;;12.40;1.00;;;;;;5092886;28;20453;-46
2023/03/30 08:40:12;;;;;;;8.70;5.07;;;12.40;1.00;;;;;;5092075;28;20177;-44
2023/03/30 08:42:54;;;;;;;10.93;4.97;;;12.40;1.00;;;;;;5092403;28;20218;-45
2023/03/30 08:45:20;;;;;;;9.50;3.73;;;12.50;1.00;;;;;;5091806;28;20416;-45
2023/03/30 08:47:48;;;;;;;10.40;3.60;;;12.60;1.00;;;;;;5096130;28;20462;-47
2023/03/30 08:50:20;;;;;;;4.50;2.47;;;12.60;99.90;;;;;;5093499;28;20172;-43
2023/03/30 08:52:46;;;;;;;4.17;2.50;;;12.60;99.90;;;;;;5096347;28;20561;-44
2023/03/30 08:55:20;;;;;;;7.43;4.13;;;12.60;99.90;;;;;;5095511;28;20414;-45
2023/03/30 08:58:24;;;;;;;3.00;2.50;;;12.60;99.90;;;;;;5096702;28;20479;-46
2023/03/30 09:01:08;;;;;;;4.00;2.33;;;12.50;1.00;;;;;;5014174;28;20499;-44
2023/03/30 09:03:36;;;;;;;6.40;2.50;;;12.30;1.00;;;;;;5091932;28;20864;-51
2023/03/30 09:06:38;;;;;;;4.93;2.50;;;12.30;1.00;;;;;;5097603;28;20406;-43
2023/03/30 09:09:04;;;;;;;6.47;3.03;;;12.20;99.90;;;;;;5099366;28;20740;-45
2023/03/30 09:11:33;;;;;;;5.97;2.90;;;12.10;99.90;;;;;;5097816;28;20467;-44
2023/03/30 09:14:01;;;;;;;6.67;2.30;;;12.00;99.90;;;;;;5096828;28;20731;-44
2023/03/30 09:16:39;;;;;;;4.07;2.10;;;12.00;99.90;;;;;;5098676;28;20907;-42
2023/03/30 09:19:11;;;;;;;2.50;1.90;;;11.80;99.90;;;;;;5096693;28;20421;-48
2023/03/30 09:21:37;;;;;;;12.73;3.30;;;11.80;99.90;;;;;;5079709;28;20704;-44
2023/03/30 09:24:11;;;;;;;4.37;2.40;;;11.80;71.40;;;;;;5097478;28;20428;-44
2023/03/30 09:26:53;;;;;;;2.70;2.20;;;11.90;1.00;;;;;;5097606;28;20469;-44
2023/03/30 09:29:33;;;;;;;7.77;2.90;;;12.10;1.00;;;;;;5097783;28;20800;-45
2023/03/30 09:32:23;;;;;;;3.50;2.53;;;12.30;1.00;;;;;;5094890;28;20520;-44
2023/03/30 09:35:10;;;;;;;5.77;3.40;;;12.30;1.00;;;;;;5095580;28;20517;-45
2023/03/30 09:37:36;;;;;;;5.73;2.80;;;12.50;99.90;;;;;;5097719;28;20430;-45
2023/03/30 09:40:31;;;;;;;6.47;3.23;;;12.50;1.00;;;;;;5097114;28;20889;-44
2023/03/30 09:43:15;;;;;;;5.20;3.10;;;12.60;1.00;;;;;;5093819;28;20454;-43
2023/03/30 09:45:42;;;;;;;5.13;2.70;;;12.60;99.90;;;;;;5092599;28;20425;-44
2023/03/30 09:48:08;;;;;;;4.27;3.10;;;12.70;99.90;;;;;;5093271;28;20560;-44
2023/03/30 09:50:44;;;;;;;4.53;3.33;;;12.80;99.90;;;;;;5093622;28;20502;-43
2023/03/30 09:53:28;;;;;;;6.27;3.13;;;12.90;99.90;;;;;;5093579;28;20418;-43
2023/03/30 09:56:01;;;;;;;5.10;3.73;;;13.10;27.90;;;;;;5092652;28;20558;-50
2023/03/30 09:58:29;;;;;;;7.83;3.67;;;13.20;1.00;;;;;;5094059;28;20426;-44
2023/03/30 10:01:04;;;;;;;4.00;2.97;;;13.20;1.00;;;;;;5096098;28;20418;-45
2023/03/30 10:03:30;;;;;;;4.23;3.27;;;13.00;93.40;;;;;;5096368;28;20444;-43
2023/03/30 10:06:06;;;;;;;5.00;3.80;;;13.00;99.90;;;;;;5093895;28;20682;-43
2023/03/30 10:08:41;;;;;;;6.43;3.33;;;13.10;99.90;;;;;;5095461;28;20602;-44
2023/03/30 10:11:07;;;;;;;4.40;3.57;;;13.20;99.90;;;;;;5094334;28;20410;-42
2023/03/30 10:13:36;;;;;;;7.43;4.00;;;13.20;1.00;;;;;;5095393;28;20425;-43
2023/03/30 10:16:22;;;;;;;4.70;3.50;;;13.20;1.00;;;;;;5077069;28;20419;-44
2023/03/30 10:18:53;;;;;;;5.90;3.30;;;13.00;99.90;;;;;;5096391;28;20919;-46
2023/03/30 10:21:26;;;;;;;5.00;3.40;;;13.10;99.90;;;;;;5095357;28;20414;-42
2023/03/30 10:24:21;;;;;;;7.30;4.00;;;13.20;99.90;;;;;;5124383;27;20675;-44
2023/03/30 10:26:54;;;;;;;4.80;3.70;;;13.40;99.90;;;;;;5123463;27;20919;-46
2023/03/30 10:29:22;;;;;;;4.40;3.50;;;13.50;30.70;;;;;;5093097;28;20418;-44
2023/03/30 10:31:58;;;;;;;6.53;4.30;;;13.50;1.00;;;;;;5094299;28;20434;-44
2023/03/30 10:34:44;;;;;;;6.07;4.03;;;13.50;1.00;;;;;;5095385;28;20688;-45
2023/03/30 10:37:31;;;;;;;6.47;4.10;;;13.40;99.90;;;;;;5097593;28;20431;-43
2023/03/30 10:39:57;;;;;;;5.13;4.00;;;13.30;99.90;;;;;;5093867;28;20418;-43
2023/03/30 10:42:25;;;;;;;5.63;3.63;;;13.30;99.90;;;;;;5075998;28;20564;-45
2023/03/30 10:45:04;;;;;;;6.30;3.93;;;13.30;99.90;;;;;;5094614;28;20402;-44
2023/03/30 10:47:43;;;;;;;5.10;3.50;;;13.30;99.90;;;;;;5092804;28;20767;-44
2023/03/30 10:50:21;;;;;;;5.63;4.30;;;13.20;1.00;;;;;;5091700;28;20423;-43
2023/03/30 10:53:09;;;;;;;7.70;5.10;;;13.10;1.00;;;;;;5095069;28;20454;-46
2023/03/30 10:55:54;;;;;;;8.60;4.27;;;13.10;1.00;;;;;;5094143;28;20563;-45
2023/03/30 10:58:28;;;;;;;6.03;4.40;;;13.00;1.00;;;;;;5093189;28;20525;-43
2023/03/30 11:01:19;;;;;;;6.17;4.13;;;13.00;16.80;;;;;;5092900;28;20405;-43
2023/03/30 11:03:49;;;;;;;11.10;5.00;;;13.00;93.60;;;;;;5091289;28;20719;-45
2023/03/30 11:06:24;;;;;;;6.20;4.33;;;13.00;99.90;;;;;;5106740;28;20414;-45
2023/03/30 11:08:51;;;;;;;5.93;4.73;;;13.00;99.90;;;;;;5087866;28;20487;-44
2023/03/30 11:11:31;;;;;;;7.03;4.87;;;13.10;99.90;;;;;;5091303;28;20411;-43
2023/03/30 11:14:03;;;;;;;5.43;4.10;;;13.20;99.90;;;;;;5089295;28;20414;-44
2023/03/30 11:16:31;;;;;;;7.47;4.10;;;13.20;99.90;;;;;;5090452;28;20406;-44
2023/03/30 11:19:06;;;;;;;7.90;4.97;;;13.40;99.90;;;;;;5091662;28;20424;-47
2023/03/30 11:21:49;;;;;;;7.23;4.40;;;13.50;99.90;;;;;;5090957;28;20441;-47
2023/03/30 11:24:22;;;;;;;8.40;4.40;;;13.50;94.20;;;;;;5089438;28;20403;-43
2023/03/30 11:26:57;;;;;;;9.23;4.60;;;13.60;99.90;;;;;;5089456;28;20880;-44
2023/03/30 11:29:30;;;;;;;9.70;4.47;;;13.70;1.00;;;;;;5090973;28;20429;-44
2023/03/30 11:32:20;;;;;;;5.80;4.27;;;13.90;1.00;;;;;;5090892;28;20415;-45
2023/03/30 11:35:08;;;;;;;10.40;4.67;;;14.00;1.00;;;;;;5087797;28;20651;-44
2023/03/30 11:37:48;;;;;;;8.20;4.67;;;14.30;99.90;;;;;;5088468;28;20499;-42
2023/03/30 11:40:21;;;;;;;10.27;4.37;;;14.40;99.90;;;;;;5086519;28;20403;-43
2023/03/30 11:42:48;;;;;;;8.40;4.97;;;14.30;99.90;;;;;;5090520;28;20800;-44
2023/03/30 11:45:18;;;;;;;5.90;4.67;;;14.20;99.90;;;;;;5092978;28;20410;-44
2023/03/30 11:48:00;;;;;;;5.67;3.80;;;14.00;1.00;;;;;;5092174;28;20470;-44
2023/03/30 11:50:37;;;;;;;7.37;4.50;;;14.00;1.00;;;;;;5094015;28;20497;-44
2023/03/30 11:53:27;;;;;;;4.97;4.20;;;14.10;99.90;;;;;;5094500;28;20505;-45
2023/03/30 11:56:11;;;;;;;11.43;5.13;;;14.30;99.90;;;;;;5093006;28;20407;-46
2023/03/30 11:58:42;;;;;;;6.70;4.60;;;14.30;99.90;;;;;;5092617;28;20855;-44
2023/03/30 12:01:37;;;;;;;8.40;5.00;;;14.30;1.00;;;;;;5092011;28;20500;-43
2023/03/30 12:04:14;;;;;;;8.03;5.30;;;14.50;1.00;;;;;;5089927;28;20413;-45
2023/03/30 12:07:00;;;;;;;5.33;4.43;;;14.40;99.90;;;;;;5090372;28;20533;-45
2023/03/30 12:09:38;;;;;;;5.73;4.80;;;14.60;1.00;;;;;;5072359;28;20499;-43
2023/03/30 12:12:05;;;;;;;6.40;4.80;;;14.50;81.80;;;;;;5072933;28;20422;-45
2023/03/30 12:14:40;;;;;;;8.57;5.23;;;14.20;94.90;;;;;;5089034;28;20411;-43
2023/03/30 12:17:38;;;;;;;9.13;5.53;;;14.00;99.90;;;;;;5090610;28;20418;-43
2023/03/30 12:20:12;;;;;;;7.03;5.27;;;13.90;1.00;;;;;;5090170;28;20433;-45
2023/03/30 12:22:50;;;;;;;8.27;4.83;;;14.20;1.00;;;;;;5089239;28;20402;-46
2023/03/30 12:25:28;;;;;;;7.37;5.20;;;15.20;1.00;;;;;;5088022;28;20449;-45
2023/03/30 12:27:57;;;;;;;9.60;4.90;;;15.50;1.00;;;;;;5090831;28;20768;-44
2023/03/30 12:30:26;;;;;;;6.17;4.70;;;15.70;1.00;;;;;;5091918;28;20697;-44
2023/03/30 12:33:17;;;;;;;7.57;4.77;;;15.90;99.90;;;;;;5089558;28;20458;-43
2023/03/30 12:35:52;;;;;;;4.97;3.70;;;16.60;35.00;;;;;;5088335;28;20449;-45
2023/03/30 12:38:37;;;;;;;6.00;4.43;;;17.10;99.90;;;;;;5086245;28;20478;-44
2023/03/30 12:41:14;;;;;;;5.77;5.00;;;16.70;91.50;;;;;;5089817;28;20410;-44
2023/03/30 12:44:18;;;;;;;6.90;4.63;;;16.60;99.90;;;;;;5088590;28;20525;-42
2023/03/30 12:46:52;;;;;;;6.97;4.63;;;17.80;1.00;;;;;;5087781;28;20916;-44
2023/03/30 12:49:23;;;;;;;10.90;4.07;;;18.60;99.90;;;;;;5089245;28;20458;-44
2023/03/30 12:51:59;;;;;;;6.07;4.30;;;19.60;20.50;;;;;;5090214;28;20458;-45
2023/03/30 12:54:37;;;;;;;5.47;4.00;;;19.40;1.00;;;;;;5089226;28;20418;-44
2023/03/30 12:57:21;;;;;;;7.23;4.10;;;18.30;1.00;;;;;;5086835;28;20544;-43
2023/03/30 13:00:08;;;;;;;5.70;4.40;;;17.90;9.20;;;;;;5091350;28;20487;-43
2023/03/30 13:02:36;;;;;;;4.77;3.70;;;18.00;1.00;;;;;;5092374;28;20418;-44
2023/03/30 13:05:04;;;;;;;4.67;4.13;;;17.80;10.80;;;;;;5090773;28;20410;-43
2023/03/30 13:07:33;;;;;;;7.73;3.80;;;17.20;85.70;;;;;;5089079;28;20486;-43
2023/03/30 13:10:25;;;;;;;10.53;4.03;;;18.10;1.70;;;;;;5071522;28;20403;-44